createdAt,value
2022-09-10T00:00:56.079Z,15.13
2022-09-10T00:01:56.163Z,15.13
2022-09-10T00:02:56.143Z,15.15
2022-09-10T00:03:56.093Z,15.16
2022-09-10T00:04:56.093Z,15.16
2022-09-10T00:05:56.090Z,15.17
2022-09-10T00:06:56.072Z,15.18
2022-09-10T00:07:56.140Z,15.19
2022-09-10T00:08:56.258Z,15.2
2022-09-10T00:09:56.502Z,15.2
2022-09-10T00:10:56.802Z,15.19
2022-09-10T00:11:56.750Z,15.18
2022-09-10T00:12:56.679Z,15.17
2022-09-10T00:13:56.344Z,15.16
2022-09-10T00:14:56.800Z,15.15
2022-09-10T00:15:56.723Z,15.12
2022-09-10T00:16:56.097Z,15.11
2022-09-10T00:17:56.101Z,15.1
2022-09-10T00:18:56.123Z,15.08
2022-09-10T00:19:56.094Z,15.06
2022-09-10T00:20:56.091Z,15.04
2022-09-10T00:21:56.108Z,15.03
2022-09-10T00:22:56.092Z,15.03
2022-09-10T00:23:56.120Z,15.01
2022-09-10T00:24:56.112Z,15.01
2022-09-10T00:25:56.181Z,15.01
2022-09-10T00:26:56.107Z,15.02
2022-09-10T00:27:56.096Z,15.03
2022-09-10T00:28:56.118Z,15.04
2022-09-10T00:29:56.078Z,15.04
2022-09-10T00:30:56.090Z,15.05
2022-09-10T00:31:56.065Z,15.05
2022-09-10T00:32:56.112Z,15.05
2022-09-10T00:33:56.117Z,15.05
2022-09-10T00:34:56.186Z,15.05
2022-09-10T00:35:56.089Z,15.05
2022-09-10T00:36:56.303Z,15.04
2022-09-10T00:37:56.059Z,15.03
2022-09-10T00:38:56.230Z,15.03
2022-09-10T00:39:56.069Z,15
2022-09-10T00:40:56.277Z,15
2022-09-10T00:41:56.100Z,15.01
2022-09-10T00:42:56.338Z,15.02
2022-09-10T00:43:56.590Z,15.02
2022-09-10T00:44:56.340Z,15.01
2022-09-10T00:45:56.527Z,14.99
2022-09-10T00:46:56.823Z,14.98
2022-09-10T00:47:56.327Z,14.95
2022-09-10T00:48:56.084Z,14.92
2022-09-10T00:49:56.275Z,14.91
2022-09-10T00:50:56.337Z,14.9
2022-09-10T00:51:56.366Z,14.89
2022-09-10T00:52:56.598Z,14.87
2022-09-10T00:53:56.332Z,14.86
2022-09-10T00:54:56.609Z,14.84
2022-09-10T00:55:56.178Z,14.83
2022-09-10T00:56:56.503Z,14.82
2022-09-10T00:57:56.505Z,14.83
2022-09-10T00:58:57.023Z,14.83
2022-09-10T00:59:56.537Z,14.83
2022-09-10T01:00:56.143Z,14.84
2022-09-10T01:01:56.269Z,14.83
2022-09-10T01:02:56.390Z,14.83
2022-09-10T01:03:56.343Z,14.83
2022-09-10T01:04:56.097Z,14.84
2022-09-10T01:05:56.125Z,14.84
2022-09-10T01:06:56.094Z,14.83
2022-09-10T01:07:56.117Z,14.83
2022-09-10T01:08:56.100Z,14.8
2022-09-10T01:09:56.081Z,14.79
2022-09-10T01:10:56.119Z,14.78
2022-09-10T01:11:56.087Z,14.78
2022-09-10T01:12:56.338Z,14.79
2022-09-10T01:13:56.095Z,14.81
2022-09-10T01:14:56.090Z,14.83
2022-09-10T01:15:56.252Z,14.84
2022-09-10T01:16:56.410Z,14.84
2022-09-10T01:17:56.108Z,14.85
2022-09-10T01:18:56.112Z,14.85
2022-09-10T01:19:56.086Z,14.85
2022-09-10T01:20:56.108Z,14.84
2022-09-10T01:21:56.087Z,14.82
2022-09-10T01:22:56.099Z,14.81
2022-09-10T01:23:56.102Z,14.79
2022-09-10T01:24:56.091Z,14.81
2022-09-10T01:25:56.099Z,14.81
2022-09-10T01:26:56.090Z,14.84
2022-09-10T01:27:56.109Z,14.85
2022-09-10T01:28:56.109Z,14.86
2022-09-10T01:29:56.105Z,14.86
2022-09-10T01:30:56.089Z,14.87
2022-09-10T01:31:56.102Z,14.85
2022-09-10T01:32:56.093Z,14.85
2022-09-10T01:33:56.119Z,14.83
2022-09-10T01:34:56.089Z,14.8
2022-09-10T01:35:56.098Z,14.77
2022-09-10T01:36:56.106Z,14.74
2022-09-10T01:37:56.101Z,14.69
2022-09-10T01:38:56.107Z,14.67
2022-09-10T01:39:56.240Z,14.63
2022-09-10T01:40:56.095Z,14.61
2022-09-10T01:41:56.089Z,14.59
2022-09-10T01:42:56.114Z,14.57
2022-09-10T01:43:56.124Z,14.55
2022-09-10T01:44:56.086Z,14.56
2022-09-10T01:45:56.138Z,14.58
2022-09-10T01:46:56.102Z,14.59
2022-09-10T01:47:56.106Z,14.59
2022-09-10T01:48:56.134Z,14.58
2022-09-10T01:49:56.113Z,14.59
2022-09-10T01:50:56.085Z,14.6
2022-09-10T01:51:56.099Z,14.6
2022-09-10T01:52:56.085Z,14.59
2022-09-10T01:53:56.116Z,14.59
2022-09-10T01:54:56.113Z,14.58
2022-09-10T01:55:56.118Z,14.58
2022-09-10T01:56:56.112Z,14.59
2022-09-10T01:57:56.101Z,14.63
2022-09-10T01:58:56.125Z,14.66
2022-09-10T01:59:56.103Z,14.68
2022-09-10T02:00:56.117Z,14.7
2022-09-10T02:01:56.117Z,14.73
2022-09-10T02:02:56.089Z,14.76
2022-09-10T02:03:56.109Z,14.78
2022-09-10T02:04:56.083Z,14.81
2022-09-10T02:05:56.091Z,14.82
2022-09-10T02:06:56.096Z,14.81
2022-09-10T02:07:56.098Z,14.8
2022-09-10T02:08:56.109Z,14.78
2022-09-10T02:09:56.089Z,14.78
2022-09-10T02:10:56.157Z,14.79
2022-09-10T02:11:56.077Z,14.8
2022-09-10T02:12:56.125Z,14.8
2022-09-10T02:13:56.091Z,14.83
2022-09-10T02:14:56.084Z,14.84
2022-09-10T02:15:56.096Z,14.85
2022-09-10T02:16:56.109Z,14.84
2022-09-10T02:17:56.126Z,14.84
2022-09-10T02:18:56.086Z,14.84
2022-09-10T02:19:56.094Z,14.83
2022-09-10T02:20:56.191Z,14.83
2022-09-10T02:21:56.093Z,14.83
2022-09-10T02:22:56.092Z,14.81
2022-09-10T02:23:56.068Z,14.79
2022-09-10T02:24:56.171Z,14.76
2022-09-10T02:25:56.090Z,14.72
2022-09-10T02:26:56.172Z,14.68
2022-09-10T02:27:56.123Z,14.64
2022-09-10T02:28:56.216Z,14.6
2022-09-10T02:29:56.199Z,14.56
2022-09-10T02:30:56.181Z,14.52
2022-09-10T02:31:56.079Z,14.47
2022-09-10T02:32:56.392Z,14.41
2022-09-10T02:33:56.561Z,14.35
2022-09-10T02:34:56.095Z,14.3
2022-09-10T02:35:56.180Z,14.24
2022-09-10T02:36:56.408Z,14.17
2022-09-10T02:37:56.089Z,14.12
2022-09-10T02:38:56.102Z,14.08
2022-09-10T02:39:56.148Z,14.04
2022-09-10T02:40:56.171Z,14.02
2022-09-10T02:41:56.092Z,13.99
2022-09-10T02:42:56.112Z,13.96
2022-09-10T02:43:56.102Z,13.95
2022-09-10T02:44:56.094Z,13.94
2022-09-10T02:45:56.114Z,13.93
2022-09-10T02:46:56.082Z,13.95
2022-09-10T02:47:56.097Z,13.95
2022-09-10T02:48:56.102Z,13.97
2022-09-10T02:49:56.093Z,13.96
2022-09-10T02:50:56.092Z,13.94
2022-09-10T02:51:56.102Z,13.93
2022-09-10T02:52:56.099Z,13.93
2022-09-10T02:53:56.094Z,13.92
2022-09-10T02:54:56.091Z,13.91
2022-09-10T02:55:56.092Z,13.87
2022-09-10T02:56:56.097Z,13.85
2022-09-10T02:57:56.101Z,13.82
2022-09-10T02:58:56.103Z,13.81
2022-09-10T02:59:56.105Z,13.79
2022-09-10T03:00:56.103Z,13.78
2022-09-10T03:01:56.240Z,13.77
2022-09-10T03:03:00.987Z,13.76
2022-09-10T03:03:56.094Z,13.77
2022-09-10T03:04:56.092Z,13.78
2022-09-10T03:05:56.097Z,13.78
2022-09-10T03:06:56.099Z,13.8
2022-09-10T03:07:56.098Z,13.8
2022-09-10T03:08:56.086Z,13.82
2022-09-10T03:09:56.095Z,13.83
2022-09-10T03:10:56.098Z,13.84
2022-09-10T03:11:56.106Z,13.83
2022-09-10T03:12:56.103Z,13.85
2022-09-10T03:13:56.132Z,13.87
2022-09-10T03:14:56.094Z,13.87
2022-09-10T03:15:56.083Z,13.88
2022-09-10T03:16:56.101Z,13.93
2022-09-10T03:17:56.094Z,13.96
2022-09-10T03:18:56.087Z,13.99
2022-09-10T03:19:56.097Z,14.01
2022-09-10T03:20:56.091Z,14.04
2022-09-10T03:21:56.099Z,14.05
2022-09-10T03:22:56.091Z,14.07
2022-09-10T03:23:59.261Z,14.07
2022-09-10T03:24:56.091Z,14.08
2022-09-10T03:25:56.076Z,14.1
2022-09-10T03:26:56.374Z,14.11
2022-09-10T03:27:57.201Z,14.13
2022-09-10T03:28:56.529Z,14.14
2022-09-10T03:29:55.899Z,14.16
2022-09-10T03:30:56.336Z,14.17
2022-09-10T03:31:56.619Z,14.18
2022-09-10T03:32:56.713Z,14.19
2022-09-10T03:33:56.315Z,14.2
2022-09-10T03:34:56.099Z,14.2
2022-09-10T03:35:56.118Z,14.21
2022-09-10T03:36:56.075Z,14.21
2022-09-10T03:37:56.102Z,14.23
2022-09-10T03:38:56.098Z,14.26
2022-09-10T03:39:56.108Z,14.29
2022-09-10T03:40:56.207Z,14.31
2022-09-10T03:41:56.095Z,14.34
2022-09-10T03:42:56.111Z,14.35
2022-09-10T03:43:56.164Z,14.37
2022-09-10T03:44:56.292Z,14.39
2022-09-10T03:45:56.172Z,14.4
2022-09-10T03:46:56.377Z,14.42
2022-09-10T03:47:56.123Z,14.46
2022-09-10T03:48:56.404Z,14.5
2022-09-10T03:49:56.260Z,14.53
2022-09-10T03:50:56.465Z,14.56
2022-09-10T03:51:56.733Z,14.58
2022-09-10T03:52:56.455Z,14.59
2022-09-10T03:53:56.088Z,14.62
2022-09-10T03:54:56.496Z,14.62
2022-09-10T03:55:56.123Z,14.63
2022-09-10T03:56:56.070Z,14.63
2022-09-10T03:57:56.081Z,14.62
2022-09-10T03:58:56.188Z,14.62
2022-09-10T03:59:56.070Z,14.61
2022-09-10T04:00:56.246Z,14.62
2022-09-10T04:01:56.305Z,14.61
2022-09-10T04:02:56.214Z,14.63
2022-09-10T04:03:56.560Z,14.66
2022-09-10T04:04:56.789Z,14.67
2022-09-10T04:05:56.226Z,14.68
2022-09-10T04:06:56.511Z,14.68
2022-09-10T04:07:56.187Z,14.69
2022-09-10T04:08:56.451Z,14.67
2022-09-10T04:09:56.303Z,14.67
2022-09-10T04:10:56.535Z,14.67
2022-09-10T04:11:56.862Z,14.65
2022-09-10T04:12:56.451Z,14.65
2022-09-10T04:13:56.080Z,14.63
2022-09-10T04:14:56.358Z,14.63
2022-09-10T04:15:56.526Z,14.63
2022-09-10T04:16:56.087Z,14.6
2022-09-10T04:17:56.100Z,14.59
2022-09-10T04:18:56.402Z,14.57
2022-09-10T04:19:56.117Z,14.57
2022-09-10T04:20:56.099Z,14.55
2022-09-10T04:21:56.089Z,14.55
2022-09-10T04:22:56.090Z,14.54
2022-09-10T04:23:56.098Z,14.52
2022-09-10T04:24:56.136Z,14.5
2022-09-10T04:25:56.101Z,14.49
2022-09-10T04:26:56.122Z,14.48
2022-09-10T04:27:56.230Z,14.49
2022-09-10T04:28:56.087Z,14.49
2022-09-10T04:29:56.124Z,14.49
2022-09-10T04:30:56.320Z,14.47
2022-09-10T04:31:56.163Z,14.49
2022-09-10T04:32:56.088Z,14.49
2022-09-10T04:33:56.100Z,14.51
2022-09-10T04:34:56.129Z,14.52
2022-09-10T04:35:56.110Z,14.53
2022-09-10T04:36:56.119Z,14.53
2022-09-10T04:37:56.104Z,14.54
2022-09-10T04:38:56.092Z,14.54
2022-09-10T04:39:56.139Z,14.54
2022-09-10T04:40:56.108Z,14.55
2022-09-10T04:41:56.095Z,14.54
2022-09-10T04:42:56.086Z,14.55
2022-09-10T04:43:56.091Z,14.55
2022-09-10T04:44:56.125Z,14.55
2022-09-10T04:45:56.145Z,14.56
2022-09-10T04:46:56.094Z,14.55
2022-09-10T04:47:56.107Z,14.55
2022-09-10T04:48:56.111Z,14.55
2022-09-10T04:49:56.123Z,14.54
2022-09-10T04:51:15.570Z,14.54
2022-09-10T04:51:56.097Z,14.54
2022-09-10T04:52:56.096Z,14.54
2022-09-10T04:53:56.119Z,14.55
2022-09-10T04:54:56.110Z,14.55
2022-09-10T04:55:56.097Z,14.55
2022-09-10T04:56:56.115Z,14.56
2022-09-10T04:57:56.098Z,14.56
2022-09-10T04:58:56.132Z,14.57
2022-09-10T04:59:56.096Z,14.57
2022-09-10T05:00:56.132Z,14.57
2022-09-10T05:01:56.141Z,14.57
2022-09-10T05:02:56.087Z,14.57
2022-09-10T05:03:56.120Z,14.57
2022-09-10T05:04:56.107Z,14.57
2022-09-10T05:05:56.095Z,14.58
2022-09-10T05:06:56.099Z,14.58
2022-09-10T05:07:56.228Z,14.58
2022-09-10T05:08:56.150Z,14.59
2022-09-10T05:09:56.100Z,14.59
2022-09-10T05:10:56.107Z,14.59
2022-09-10T05:11:56.107Z,14.6
2022-09-10T05:12:56.099Z,14.6
2022-09-10T05:13:56.113Z,14.6
2022-09-10T05:14:56.096Z,14.61
2022-09-10T05:15:56.100Z,14.6
2022-09-10T05:16:56.099Z,14.62
2022-09-10T05:17:56.108Z,14.63
2022-09-10T05:18:56.169Z,14.65
2022-09-10T05:19:56.107Z,14.64
2022-09-10T05:20:56.092Z,14.65
2022-09-10T05:21:56.100Z,14.66
2022-09-10T05:22:56.089Z,14.68
2022-09-10T05:23:56.123Z,14.69
2022-09-10T05:24:56.093Z,14.7
2022-09-10T05:25:56.092Z,14.72
2022-09-10T05:26:56.089Z,14.72
2022-09-10T05:27:56.095Z,14.72
2022-09-10T05:28:56.113Z,14.75
2022-09-10T05:29:56.101Z,14.77
2022-09-10T05:30:56.089Z,14.79
2022-09-10T05:31:56.126Z,14.78
2022-09-10T05:32:56.134Z,14.8
2022-09-10T05:33:56.101Z,14.81
2022-09-10T05:34:56.162Z,14.81
2022-09-10T05:35:56.077Z,14.83
2022-09-10T05:36:56.095Z,14.84
2022-09-10T05:37:56.101Z,14.84
2022-09-10T05:38:56.081Z,14.83
2022-09-10T05:39:56.166Z,14.82
2022-09-10T05:40:56.175Z,14.83
2022-09-10T05:41:56.189Z,14.82
2022-09-10T05:42:56.062Z,14.82
2022-09-10T05:43:56.169Z,14.81
2022-09-10T05:44:56.175Z,14.81
2022-09-10T05:45:56.465Z,14.81
2022-09-10T05:46:56.129Z,14.81
2022-09-10T05:47:56.094Z,14.8
2022-09-10T05:48:56.298Z,14.81
2022-09-10T05:49:56.102Z,14.8
2022-09-10T05:50:56.307Z,14.8
2022-09-10T05:51:56.103Z,14.82
2022-09-10T05:52:56.301Z,14.83
2022-09-10T05:53:56.095Z,14.83
2022-09-10T05:54:56.091Z,14.84
2022-09-10T05:55:56.096Z,14.83
2022-09-10T05:56:56.093Z,14.84
2022-09-10T05:57:56.086Z,14.85
2022-09-10T05:58:56.102Z,14.86
2022-09-10T05:59:56.104Z,14.87
2022-09-10T06:00:56.098Z,14.88
2022-09-10T06:01:56.139Z,14.9
2022-09-10T06:02:56.285Z,14.91
2022-09-10T06:03:56.088Z,14.91
2022-09-10T06:04:56.094Z,14.92
2022-09-10T06:05:56.085Z,14.94
2022-09-10T06:06:56.094Z,14.96
2022-09-10T06:07:56.099Z,14.99
2022-09-10T06:08:56.084Z,15
2022-09-10T06:09:56.095Z,15.03
2022-09-10T06:10:56.098Z,15.05
2022-09-10T06:11:56.107Z,15.1
2022-09-10T06:12:56.091Z,15.12
2022-09-10T06:13:56.094Z,15.13
2022-09-10T06:14:56.086Z,15.16
2022-09-10T06:15:56.083Z,15.17
2022-09-10T06:16:56.087Z,15.2
2022-09-10T06:17:56.097Z,15.21
2022-09-10T06:18:56.092Z,15.23
2022-09-10T06:19:56.085Z,15.25
2022-09-10T06:20:56.111Z,15.25
2022-09-10T06:21:56.096Z,15.27
2022-09-10T06:22:56.117Z,15.29
2022-09-10T06:23:56.108Z,15.29
2022-09-10T06:24:56.099Z,15.3
2022-09-10T06:25:56.089Z,15.31
2022-09-10T06:26:56.083Z,15.3
2022-09-10T06:27:56.088Z,15.3
2022-09-10T06:28:56.103Z,15.29
2022-09-10T06:29:56.097Z,15.29
2022-09-10T06:30:56.108Z,15.3
2022-09-10T06:31:56.095Z,15.31
2022-09-10T06:32:56.099Z,15.31
2022-09-10T06:33:56.172Z,15.31
2022-09-10T06:34:56.127Z,15.31
2022-09-10T06:35:56.093Z,15.3
2022-09-10T06:36:56.096Z,15.3
2022-09-10T06:37:56.131Z,15.32
2022-09-10T06:38:56.182Z,15.34
2022-09-10T06:39:56.591Z,15.34
2022-09-10T06:40:56.178Z,15.35
2022-09-10T06:41:57.042Z,15.37
2022-09-10T06:42:56.681Z,15.38
2022-09-10T06:43:55.946Z,15.39
2022-09-10T06:44:56.278Z,15.42
2022-09-10T06:45:56.617Z,15.45
2022-09-10T06:47:30.702Z,15.46
2022-09-10T06:48:56.388Z,15.52
2022-09-10T06:49:56.065Z,15.52
2022-09-10T06:50:56.096Z,15.53
2022-09-10T06:51:56.087Z,15.55
2022-09-10T06:52:56.102Z,15.55
2022-09-10T06:53:56.135Z,15.57
2022-09-10T06:54:56.093Z,15.57
2022-09-10T06:55:56.264Z,15.59
2022-09-10T06:56:56.394Z,15.6
2022-09-10T06:57:56.302Z,15.62
2022-09-10T06:59:01.607Z,15.65
2022-09-10T06:59:56.215Z,15.66
2022-09-10T07:00:56.539Z,15.7
2022-09-10T07:01:56.198Z,15.74
2022-09-10T07:02:56.392Z,15.78
2022-09-10T07:03:56.103Z,15.76
2022-09-10T07:04:56.118Z,15.78
2022-09-10T07:05:56.094Z,15.8
2022-09-10T07:06:56.103Z,15.82
2022-09-10T07:07:56.120Z,15.83
2022-09-10T07:08:56.132Z,15.82
2022-09-10T07:09:56.083Z,15.82
2022-09-10T07:10:56.093Z,15.86
2022-09-10T07:11:56.097Z,15.88
2022-09-10T07:12:56.083Z,15.92
2022-09-10T07:13:56.141Z,15.91
2022-09-10T07:14:56.166Z,15.94
2022-09-10T07:15:56.440Z,15.97
2022-09-10T07:16:56.239Z,16
2022-09-10T07:17:56.151Z,16.05
2022-09-10T07:18:56.445Z,16.11
2022-09-10T07:19:56.981Z,16.12
2022-09-10T07:20:57.351Z,16.18
2022-09-10T07:21:56.071Z,16.2
2022-09-10T07:22:56.173Z,16.25
2022-09-10T07:23:56.407Z,16.3
2022-09-10T07:24:56.488Z,16.33
2022-09-10T07:25:56.226Z,16.35
2022-09-10T07:26:56.295Z,16.36
2022-09-10T07:27:56.077Z,16.34
2022-09-10T07:28:56.247Z,16.37
2022-09-10T07:29:56.493Z,16.39
2022-09-10T07:30:56.136Z,16.43
2022-09-10T07:31:56.072Z,16.46
2022-09-10T07:32:56.127Z,16.48
2022-09-10T07:33:56.334Z,16.55
2022-09-10T07:34:56.117Z,16.6
2022-09-10T07:35:56.091Z,16.59
2022-09-10T07:36:56.061Z,16.59
2022-09-10T07:37:56.119Z,16.59
2022-09-10T07:38:56.076Z,16.61
2022-09-10T07:39:56.154Z,16.67
2022-09-10T07:40:56.173Z,16.74
2022-09-10T07:41:56.320Z,16.8
2022-09-10T07:42:56.183Z,16.88
2022-09-10T07:43:56.095Z,16.91
2022-09-10T07:44:56.107Z,16.98
2022-09-10T07:45:57.104Z,16.98
2022-09-10T07:46:56.081Z,17.04
2022-09-10T07:47:56.115Z,17.02
2022-09-10T07:48:56.091Z,17.02
2022-09-10T07:49:56.101Z,16.96
2022-09-10T07:50:56.108Z,16.95
2022-09-10T07:51:59.922Z,16.87
2022-09-10T07:52:56.221Z,16.91
2022-09-10T07:53:56.097Z,16.89
2022-09-10T07:54:56.094Z,16.87
2022-09-10T07:55:56.108Z,16.91
2022-09-10T07:56:56.103Z,16.92
2022-09-10T07:58:00.154Z,16.9
2022-09-10T07:58:56.112Z,16.93
2022-09-10T07:59:56.093Z,16.95
2022-09-10T08:00:56.102Z,16.99
2022-09-10T08:01:56.124Z,16.95
2022-09-10T08:02:56.135Z,16.95
2022-09-10T08:03:56.109Z,16.98
2022-09-10T08:04:56.103Z,16.99
2022-09-10T08:05:56.094Z,16.99
2022-09-10T08:06:56.101Z,16.98
2022-09-10T08:07:56.109Z,17.03
2022-09-10T08:08:56.090Z,17.07
2022-09-10T08:09:56.092Z,17.13
2022-09-10T08:10:56.089Z,17.16
2022-09-10T08:11:56.092Z,17.24
2022-09-10T08:12:56.133Z,17.3
2022-09-10T08:13:56.093Z,17.34
2022-09-10T08:14:56.121Z,17.33
2022-09-10T08:15:56.233Z,17.4
2022-09-10T08:16:56.085Z,17.5
2022-09-10T08:17:56.120Z,17.58
2022-09-10T08:18:56.101Z,17.58
2022-09-10T08:19:56.098Z,17.48
2022-09-10T08:20:56.098Z,17.48
2022-09-10T08:21:56.094Z,17.47
2022-09-10T08:22:56.123Z,17.45
2022-09-10T08:23:56.104Z,17.41
2022-09-10T08:24:56.097Z,17.42
2022-09-10T08:25:56.124Z,17.43
2022-09-10T08:26:56.129Z,17.45
2022-09-10T08:27:56.120Z,17.48
2022-09-10T08:28:56.102Z,17.58
2022-09-10T08:29:56.091Z,17.78
2022-09-10T08:30:56.143Z,18.13
2022-09-10T08:31:56.090Z,18.38
2022-09-10T08:32:56.106Z,18.66
2022-09-10T08:33:56.101Z,18.84
2022-09-10T08:34:56.082Z,18.99
2022-09-10T08:35:56.114Z,19.1
2022-09-10T08:36:56.107Z,19.2
2022-09-10T08:37:56.163Z,19.23
2022-09-10T08:39:02.253Z,19.23
2022-09-10T08:39:56.152Z,19.25
2022-09-10T08:40:56.095Z,18.94
2022-09-10T08:41:56.092Z,18.71
2022-09-10T08:42:56.094Z,18.44
2022-09-10T08:43:56.127Z,18.24
2022-09-10T08:44:56.098Z,18.1
2022-09-10T08:45:56.121Z,17.9
2022-09-10T08:46:56.098Z,17.78
2022-09-10T08:47:56.105Z,17.73
2022-09-10T08:48:56.163Z,17.68
2022-09-10T08:49:56.094Z,17.59
2022-09-10T08:50:56.084Z,17.49
2022-09-10T08:51:56.083Z,17.42
2022-09-10T08:52:56.074Z,17.42
2022-09-10T08:53:56.103Z,17.41
2022-09-10T08:54:56.119Z,17.35
2022-09-10T08:55:56.073Z,17.38
2022-09-10T08:56:56.190Z,17.43
2022-09-10T08:57:56.077Z,17.5
2022-09-10T08:58:56.264Z,17.59
2022-09-10T08:59:56.081Z,17.65
2022-09-10T09:00:56.530Z,17.65
2022-09-10T09:01:56.254Z,17.7
2022-09-10T09:02:56.422Z,17.71
2022-09-10T09:03:56.549Z,17.72
2022-09-10T09:04:56.092Z,17.72
2022-09-10T09:05:56.100Z,17.66
2022-09-10T09:06:56.104Z,17.61
2022-09-10T09:07:56.088Z,17.52
2022-09-10T09:08:56.105Z,17.43
2022-09-10T09:09:56.100Z,17.43
2022-09-10T09:10:56.118Z,17.48
2022-09-10T09:11:56.102Z,17.63
2022-09-10T09:12:56.096Z,17.97
2022-09-10T09:13:56.099Z,18.31
2022-09-10T09:14:56.100Z,18.62
2022-09-10T09:15:56.159Z,18.79
2022-09-10T09:16:56.092Z,18.82
2022-09-10T09:17:56.095Z,18.67
2022-09-10T09:18:56.095Z,18.61
2022-09-10T09:19:56.099Z,18.65
2022-09-10T09:20:56.100Z,18.84
2022-09-10T09:21:56.096Z,19.09
2022-09-10T09:22:56.298Z,19.18
2022-09-10T09:24:13.004Z,19.23
2022-09-10T09:24:56.095Z,19.24
2022-09-10T09:25:56.092Z,19.24
2022-09-10T09:26:56.098Z,19.18
2022-09-10T09:27:56.087Z,19.35
2022-09-10T09:28:56.098Z,19.44
2022-09-10T09:29:56.094Z,19.69
2022-09-10T09:30:56.107Z,19.82
2022-09-10T09:31:56.096Z,20
2022-09-10T09:32:56.099Z,20.03
2022-09-10T09:33:56.109Z,19.94
2022-09-10T09:34:56.103Z,19.68
2022-09-10T09:35:56.085Z,19.47
2022-09-10T09:36:56.096Z,19.35
2022-09-10T09:37:56.088Z,19.27
2022-09-10T09:38:56.083Z,19.17
2022-09-10T09:39:56.110Z,19.07
2022-09-10T09:40:56.090Z,18.97
2022-09-10T09:41:56.093Z,18.8
2022-09-10T09:42:56.112Z,18.68
2022-09-10T09:43:56.101Z,18.63
2022-09-10T09:44:59.107Z,18.68
2022-09-10T09:45:56.176Z,18.77
2022-09-10T09:46:56.101Z,18.82
2022-09-10T09:47:56.104Z,18.83
2022-09-10T09:48:56.080Z,18.84
2022-09-10T09:49:56.080Z,18.9
2022-09-10T09:50:56.068Z,18.93
2022-09-10T09:51:56.157Z,19.01
2022-09-10T09:52:56.240Z,19.18
2022-09-10T09:54:34.358Z,19.21
2022-09-10T09:55:14.144Z,19.24
2022-09-10T09:55:56.559Z,19.18
2022-09-10T09:56:57.084Z,19.21
2022-09-10T09:57:56.018Z,19.15
2022-09-10T09:58:56.436Z,19.13
2022-09-10T09:59:56.589Z,19.1
2022-09-10T10:00:56.856Z,19.15
2022-09-10T10:01:56.312Z,19.26
2022-09-10T10:02:56.409Z,19.3
2022-09-10T10:03:56.257Z,19.46
2022-09-10T10:04:56.099Z,19.57
2022-09-10T10:05:56.220Z,19.59
2022-09-10T10:06:56.734Z,19.57
2022-09-10T10:07:56.086Z,19.61
2022-09-10T10:08:56.393Z,19.72
2022-09-10T10:09:56.098Z,19.69
2022-09-10T10:10:56.087Z,19.74
2022-09-10T10:11:56.119Z,19.75
2022-09-10T10:12:56.102Z,19.61
2022-09-10T10:13:56.096Z,19.52
2022-09-10T10:14:56.088Z,19.41
2022-09-10T10:15:56.129Z,19.3
2022-09-10T10:17:00.834Z,19.18
2022-09-10T10:17:56.111Z,19.18
2022-09-10T10:18:56.088Z,19.24
2022-09-10T10:19:56.079Z,19.19
2022-09-10T10:20:56.076Z,19.13
2022-09-10T10:21:56.190Z,19.09
2022-09-10T10:22:56.069Z,19.09
2022-09-10T10:23:56.140Z,18.98
2022-09-10T10:24:56.047Z,19
2022-09-10T10:25:56.084Z,19.05
2022-09-10T10:26:56.384Z,19.05
2022-09-10T10:27:56.079Z,18.92
2022-09-10T10:28:56.268Z,18.88
2022-09-10T10:29:56.064Z,18.85
2022-09-10T10:30:56.420Z,18.86
2022-09-10T10:31:56.146Z,18.81
2022-09-10T10:32:56.427Z,18.79
2022-09-10T10:33:56.674Z,18.78
2022-09-10T10:34:56.255Z,18.82
2022-09-10T10:35:56.090Z,18.84
2022-09-10T10:36:56.415Z,18.91
2022-09-10T10:37:56.584Z,18.97
2022-09-10T10:38:56.847Z,19.05
2022-09-10T10:39:56.697Z,19.13
2022-09-10T10:40:56.080Z,19.19
2022-09-10T10:41:56.397Z,19.22
2022-09-10T10:42:56.123Z,19.25
2022-09-10T10:43:56.195Z,19.24
2022-09-10T10:44:56.139Z,19.26
2022-09-10T10:45:56.399Z,19.25
2022-09-10T10:46:56.095Z,19.25
2022-09-10T10:47:56.110Z,19.34
2022-09-10T10:49:03.486Z,19.35
2022-09-10T10:49:56.220Z,19.42
2022-09-10T10:50:56.106Z,19.48
2022-09-10T10:51:56.072Z,19.43
2022-09-10T10:52:56.123Z,19.32
2022-09-10T10:53:56.085Z,19.2
2022-09-10T10:54:56.098Z,19.14
2022-09-10T10:55:56.098Z,19.04
2022-09-10T10:56:56.101Z,18.93
2022-09-10T10:57:56.353Z,18.89
2022-09-10T10:58:56.100Z,18.83
2022-09-10T10:59:56.090Z,18.81
2022-09-10T11:00:56.101Z,18.7
2022-09-10T11:01:56.220Z,18.67
2022-09-10T11:02:56.161Z,18.66
2022-09-10T11:03:56.084Z,18.67
2022-09-10T11:04:56.101Z,18.64
2022-09-10T11:05:56.093Z,18.61
2022-09-10T11:06:56.089Z,18.61
2022-09-10T11:07:56.130Z,18.62
2022-09-10T11:08:56.177Z,18.65
2022-09-10T11:09:56.089Z,18.67
2022-09-10T11:10:56.094Z,18.65
2022-09-10T11:11:56.124Z,18.63
2022-09-10T11:12:56.126Z,18.62
2022-09-10T11:13:56.101Z,18.61
2022-09-10T11:14:56.087Z,18.63
2022-09-10T11:15:56.147Z,18.67
2022-09-10T11:16:59.221Z,18.68
2022-09-10T11:17:56.132Z,18.69
2022-09-10T11:18:56.090Z,18.7
2022-09-10T11:20:17.420Z,18.7
2022-09-10T11:20:56.095Z,18.68
2022-09-10T11:21:56.101Z,18.63
2022-09-10T11:22:56.155Z,18.6
2022-09-10T11:23:56.217Z,18.57
2022-09-10T11:24:56.114Z,18.51
2022-09-10T11:25:56.094Z,18.5
2022-09-10T11:26:56.088Z,18.46
2022-09-10T11:27:56.091Z,18.48
2022-09-10T11:28:56.119Z,18.5
2022-09-10T11:29:56.091Z,18.48
2022-09-10T11:30:56.128Z,18.36
2022-09-10T11:31:56.101Z,18.29
2022-09-10T11:32:56.091Z,18.21
2022-09-10T11:33:56.158Z,18.18
2022-09-10T11:34:56.108Z,18.16
2022-09-10T11:35:56.093Z,18.08
2022-09-10T11:36:56.099Z,18.05
2022-09-10T11:37:56.086Z,18.02
2022-09-10T11:38:56.121Z,18.04
2022-09-10T11:39:56.157Z,18.04
2022-09-10T11:40:56.091Z,18.1
2022-09-10T11:41:56.099Z,18.15
2022-09-10T11:42:56.094Z,18.21
2022-09-10T11:43:56.101Z,18.27
2022-09-10T11:44:56.099Z,18.26
2022-09-10T11:45:56.146Z,18.26
2022-09-10T11:46:56.094Z,18.24
2022-09-10T11:47:56.280Z,18.22
2022-09-10T11:48:56.101Z,18.18
2022-09-10T11:49:56.107Z,18.16
2022-09-10T11:50:56.118Z,18.16
2022-09-10T11:51:56.093Z,18.15
2022-09-10T11:52:56.099Z,18.09
2022-09-10T11:53:56.123Z,18.05
2022-09-10T11:54:56.108Z,17.99
2022-09-10T11:55:56.105Z,17.97
2022-09-10T11:56:56.097Z,17.95
2022-09-10T11:57:56.217Z,17.95
2022-09-10T11:58:56.110Z,17.95
2022-09-10T11:59:56.096Z,17.96
2022-09-10T12:00:56.088Z,18.01
2022-09-10T12:01:56.148Z,18.09
2022-09-10T12:02:56.105Z,18.15
2022-09-10T12:03:56.166Z,18.24
2022-09-10T12:04:56.081Z,18.31
2022-09-10T12:05:56.095Z,18.37
2022-09-10T12:06:56.112Z,18.41
2022-09-10T12:07:56.073Z,18.45
2022-09-10T12:08:56.097Z,18.48
2022-09-10T12:09:56.094Z,18.52
2022-09-10T12:10:56.080Z,18.54
2022-09-10T12:11:56.193Z,18.6
2022-09-10T12:12:56.076Z,18.63
2022-09-10T12:13:56.384Z,18.62
2022-09-10T12:14:56.081Z,18.55
2022-09-10T12:15:56.430Z,18.45
2022-09-10T12:16:56.204Z,18.34
2022-09-10T12:17:56.387Z,18.3
2022-09-10T12:18:56.240Z,18.24
2022-09-10T12:19:56.112Z,18.22
2022-09-10T12:20:56.122Z,18.16
2022-09-10T12:21:56.092Z,18.02
2022-09-10T12:22:56.093Z,17.9
2022-09-10T12:23:56.092Z,17.86
2022-09-10T12:24:56.099Z,17.83
2022-09-10T12:25:56.108Z,17.81
2022-09-10T12:26:56.096Z,17.8
2022-09-10T12:27:56.092Z,17.77
2022-09-10T12:28:56.297Z,17.74
2022-09-10T12:29:56.165Z,17.71
2022-09-10T12:30:56.145Z,17.68
2022-09-10T12:31:56.099Z,17.62
2022-09-10T12:32:56.096Z,17.6
2022-09-10T12:33:56.088Z,17.55
2022-09-10T12:34:56.093Z,17.55
2022-09-10T12:35:56.093Z,17.52
2022-09-10T12:36:56.094Z,17.52
2022-09-10T12:37:56.085Z,17.48
2022-09-10T12:38:56.082Z,17.42
2022-09-10T12:39:56.129Z,17.38
2022-09-10T12:40:56.112Z,17.33
2022-09-10T12:41:56.110Z,17.27
2022-09-10T12:42:56.234Z,17.22
2022-09-10T12:43:56.089Z,17.15
2022-09-10T12:44:56.091Z,17.1
2022-09-10T12:45:56.120Z,17.02
2022-09-10T12:46:56.087Z,16.93
2022-09-10T12:47:56.105Z,16.77
2022-09-10T12:48:56.114Z,16.68
2022-09-10T12:49:56.098Z,16.61
2022-09-10T12:50:56.110Z,16.53
2022-09-10T12:51:56.117Z,16.44
2022-09-10T12:52:56.108Z,16.35
2022-09-10T12:53:56.099Z,16.29
2022-09-10T12:54:56.100Z,16.24
2022-09-10T12:55:56.099Z,16.2
2022-09-10T12:56:56.090Z,16.16